La Linea de la Concepcion, Spain
Current Conditions -  °F | °C
As of 2:50 PM on Wednesday 26 Nov 2014 (Local Time) from LXGB Reporting Station
Rain Showers Rain Showers  
Wind Chill: 63°   Ceiling: 3500
Heat Index: 63°   Visibility: 4mi
Dew Point: 55°   Wind: 3mph
Humidity: 77%   Direction: 280°W
Pressure: 29.88"   Gusts: NA
Location:  36.17°N, 5.35°W
Report Text: LXGB 261350Z 28003KT 7000 -SHRA SCT026 BKN035 17/13 Q1012 RESHRANOSIG
Loading
Personal Weather Stations






























Interactive Weather Map New forecast layout! Learn more

10-Day Weather Forecast

Advertisements
Track Severe Weather on mobile